DW4515 Weather Reports


time (UTC)temp
C
wind
direction
speed
KPH
gust
KPH
rain 1hr
cm
rain 24hr
cm
rain mn
cm
humidity
%
barometer
mb
20220811231055 31 13 17.7 24.1 0.00 0.00 0.00 39 1016.4
20220811230557 31 25 17.7 20.9 0.00 0.00 0.00 40 1016.4
20220811230035 30 131 17.7 22.5 0.00 0.00 0.00 41 1016.4
20220811225557 30 244 12.9 19.3 0.00 0.00 0.00 41 1016.3
20220811225055 30 331 14.5 25.7 0.00 0.00 0.00 41 1016.6
20220811224617 30 188 24.1 27.4 0.00 0.00 0.00 42 1016.5
20220811224035 30 313 19.3 29.0 0.00 0.00 0.00 42 1016.5
20220811223617 30 339 22.5 27.4 0.00 0.00 0.00 43 1016.9
20220811223055 30 315 16.1 27.4 0.00 0.00 0.00 42 1016.9
20220811222617 30 281 22.5 27.4 0.00 0.00 0.00 43 1017.4
20220811222035 30 321 9.7 17.7 0.00 0.00 0.00 43 1017.3
20220811221555 30 309 16.1 20.9 0.00 0.00 0.00 43 1017.3
20220811221117 30 277 16.1 22.5 0.00 0.00 0.00 44 1017.6
20220811220617 30 238 20.9 32.2 0.00 0.00 0.00 42 1017.5
20220811220055 30 238 27.4 30.6 0.00 0.00 0.00 42 1017.5
20220811215617 30 258 20.9 30.6 0.00 0.00 0.00 42 1017.7
20220811215035 30 250 20.9 29.0 0.00 0.00 0.00 42 1017.7
20220811214535 31 234 24.1 30.6 0.00 0.00 0.00 40 1017.5
20220811214035 31 244 20.9 29.0 0.00 0.00 0.00 40 1017.5
20220811213557 31 228 24.1 32.2 0.00 0.00 0.00 40 1017.5
20220811213037 31 230 33.8 38.6 0.00 0.00 0.00 38 1017.5
20220811212557 31 235 32.2 37.0 0.00 0.00 0.00 36 1017.6
20220811212035 32 248 30.6 35.4 0.00 0.00 0.00 35 1017.4
20220811211617 32 242 33.8 38.6 0.00 0.00 0.00 35 1017.4
20220811211035 32 245 33.8 45.1 0.00 0.00 0.00 34 1017.8
20220811210617 33 246 35.4 45.1 0.00 0.00 0.00 34 1018.1
20220811210117 33 246 35.4 46.7 0.00 0.00 0.00 36 1018.2
20220811205535 33 255 37.0 45.1 0.00 0.00 0.00 35 1017.8
20220811205055 33 244 32.2 40.2 0.00 0.00 0.00 35 1018.0
20220811204555 34 258 11.3 19.3 0.00 0.00 0.00 33 1018.5
20220811204117 33 302 9.7 17.7 0.00 0.00 0.00 34 1018.4
20220811203555 33 293 14.5 17.7 0.00 0.00 0.00 34 1018.7
20220811203055 33 279 9.7 19.3 0.00 0.00 0.00 35 1018.6
20220811202555 33 301 14.5 19.3 0.00 0.00 0.00 35 1018.6
20220811202035 33 302 11.3 19.3 0.00 0.00 0.00 34 1018.7
20220811201557 34 122 4.8 11.3 0.00 0.00 0.00 34 1018.8
20220811201057 33 294 6.4 11.3 0.00 0.00 0.00 34 1019.0
20220811200555 33 308 6.4 14.5 0.00 0.00 0.00 34 1019.0
20220811200117 33 312 4.8 16.1 0.00 0.00 0.00 34 1019.0
20220811195535 33 295 6.4 19.3 0.00 0.00 0.00 33 1019.1
20220811195055 34 309 4.8 17.7 0.00 0.00 0.00 33 1019.1
20220811194555 33 308 3.2 8.0 0.00 0.00 0.00 34 1019.1
20220811194117 33 92 4.8 9.7 0.00 0.00 0.00 35 1018.9
20220811193617 33 74 6.4 12.9 0.00 0.00 0.00 34 1019.2
20220811193055 33 340 0.0 11.3 0.00 0.00 0.00 35 1019.2
20220811192535 33 343 1.6 9.7 0.00 0.00 0.00 35 1019.5
20220811192055 33 256 6.4 12.9 0.00 0.00 0.00 35 1019.4
20220811192001 33 263 11.3 12.9 0.00 0.00 0.00 35 1019.5
20220811191617 32 325 4.8 6.4 0.00 0.00 0.00 36 1019.4
20220811191055 32 281 6.4 14.5 0.00 0.00 0.00 36 1019.3
20220811190557 32 277 12.9 16.1 0.00 0.00 0.00 36 1019.3
20220811190055 32 277 6.4 11.3 0.00 0.00 0.00 35 1019.6
20220811185617 33 220 11.3 14.5 0.00 0.00 0.00 35 1019.8
20220811185035 33 198 1.6 9.7 0.00 0.00 0.00 35 1019.8
20220811184535 33 299 1.6 9.7 0.00 0.00 0.00 35 1020.2
20220811184055 33 294 1.6 4.8 0.00 0.00 0.00 35 1020.1
20220811183535 33 302 3.2 8.0 0.00 0.00 0.00 35 1020.1
20220811183035 32 87 1.6 6.4 0.00 0.00 0.00 37 1020.0
20220811182617 32 36 3.2 9.7 0.00 0.00 0.00 36 1019.9
20220811182035 32 59 4.8 9.7 0.00 0.00 0.00 36 1019.9
20220811181535 32 88 6.4 12.9 0.00 0.00 0.00 36 1020.0
20220811181035 32 85 1.6 6.4 0.00 0.00 0.00 36 1020.3
20220811180555 32 279 3.2 6.4 0.00 0.00 0.00 35 1020.3
20220811180117 32 355 1.6 8.0 0.00 0.00 0.00 37 1020.2
20220811175617 31 267 3.2 6.4 0.00 0.00 0.00 38 1020.0
20220811175035 31 191 1.6 4.8 0.00 0.00 0.00 39 1019.9
20220811174555 31 190 4.8 11.3 0.00 0.00 0.00 38 1019.8
20220811174035 31 218 3.2 9.7 0.00 0.00 0.00 39 1019.8
20220811173535 31 201 3.2 9.7 0.00 0.00 0.00 38 1019.8
20220811173035 31 158 6.4 9.7 0.00 0.00 0.00 38 1019.9
20220811172535 31 100 1.6 6.4 0.00 0.00 0.00 39 1019.8
20220811172055 30 123 1.6 6.4 0.00 0.00 0.00 41 1019.7
20220811171617 30 108 3.2 9.7 0.00 0.00 0.00 41 1019.9
20220811171117 30 153 6.4 9.7 0.00 0.00 0.00 41 1019.9
20220811170535 30 135 3.2 8.0 0.00 0.00 0.00 42 1019.8
20220811170117 30 61 3.2 8.0 0.00 0.00 0.00 42 1019.8
20220811165617 30 194 4.8 8.0 0.00 0.00 0.00 42 1019.8
20220811165055 29 98 3.2 8.0 0.00 0.00 0.00 45 1019.7
20220811164555 29 109 1.6 6.4 0.00 0.00 0.00 45 1019.6
20220811164055 29 120 4.8 11.3 0.00 0.00 0.00 46 1019.5
20220811163535 28 129 3.2 12.9 0.00 0.00 0.00 46 1019.4
20220811163055 28 163 3.2 9.7 0.00 0.00 0.00 47 1019.4
20220811162555 28 140 6.4 12.9 0.00 0.00 0.00 48 1019.3
20220811162035 28 123 8.0 12.9 0.00 0.00 0.00 49 1019.3
20220811161555 28 109 4.8 8.0 0.00 0.00 0.00 50 1019.2
20220811161117 27 104 6.4 11.3 0.00 0.00 0.00 50 1019.1
20220811160535 27 101 8.0 12.9 0.00 0.00 0.00 51 1019.4
20220811160117 27 93 8.0 11.3 0.00 0.00 0.00 52 1019.4
20220811155535 27 96 8.0 12.9 0.00 0.00 0.00 52 1019.3
20220811155055 27 105 6.4 12.9 0.00 0.00 0.00 53 1019.4
20220811154555 27 97 4.8 11.3 0.00 0.00 0.00 54 1019.3
20220811154035 27 88 1.6 4.8 0.00 0.00 0.00 56 1019.2
20220811153535 26 82 3.2 4.8 0.00 0.00 0.00 58 1019.1
20220811153055 26 82 3.2 6.4 0.00 0.00 0.00 59 1019.1
20220811152535 26 142 1.6 4.8 0.00 0.00 0.00 61 1018.9
20220811152035 25 142 0.0 4.8 0.00 0.00 0.00 62 1018.8
20220811151555 25 142 3.2 6.4 0.00 0.00 0.00 64 1018.7
20220811151117 25 163 3.2 6.4 0.00 0.00 0.00 65 1018.6
20220811150535 24 165 1.6 6.4 0.00 0.00 0.00 66 1018.4
20220811150035 24 165 1.6 8.0 0.00 0.00 0.00 68 1018.3
20220811145555 24 134 3.2 6.4 0.00 0.00 0.00 68 1018.2
20220811145035 23 119 4.8 6.4 0.00 0.00 0.00 69 1018.2
20220811144555 23 119 3.2 6.4 0.00 0.00 0.00 70 1017.8
20220811144117 23 118 6.4 9.7 0.00 0.00 0.00 70 1017.8
20220811143535 23 108 6.4 9.7 0.00 0.00 0.00 69 1017.8
20220811143055 23 103 8.0 11.3 0.00 0.00 0.00 70 1017.7
20220811142617 23 102 8.0 11.3 0.00 0.00 0.00 71 1017.6
20220811142117 23 105 6.4 11.3 0.00 0.00 0.00 72 1017.2
20220811141617 22 104 6.4 11.3 0.00 0.00 0.00 72 1017.1
20220811141035 22 99 8.0 11.3 0.00 0.00 0.00 73 1017.1
20220811140557 22 108 6.4 9.7 0.00 0.00 0.00 74 1017.0
20220811140055 22 113 6.4 11.3 0.00 0.00 0.00 75 1016.9
20220811135617 22 108 8.0 11.3 0.00 0.00 0.00 75 1016.8
20220811135117 21 101 9.7 12.9 0.00 0.00 0.00 75 1016.8
20220811134535 21 101 11.3 12.9 0.00 0.00 0.00 76 1016.7
20220811134035 21 104 11.3 12.9 0.00 0.00 0.00 76 1016.6
20220811133535 21 106 9.7 11.3 0.00 0.00 0.00 77 1016.6
20220811133055 21 106 8.0 11.3 0.00 0.00 0.00 77 1016.6
20220811132535 21 107 3.2 6.4 0.00 0.00 0.00 77 1016.6
20220811132117 21 107 4.8 6.4 0.00 0.00 0.00 76 1016.6
20220811131535 21 117 4.8 12.9 0.00 0.00 0.00 76 1016.7
20220811131057 21 121 12.9 16.1 0.00 0.00 0.00 74 1016.7
20220811130555 22 112 9.7 11.3 0.00 0.00 0.00 74 1016.8
20220811130057 21 118 8.0 9.7 0.00 0.00 0.00 74 1016.4
20220811125535 21 93 6.4 6.4 0.00 0.00 0.00 75 1016.4
20220811125055 21 94 4.8 9.7 0.00 0.00 0.00 74 1016.4
20220811124555 21 124 4.8 8.0 0.00 0.00 0.00 74 1016.4
20220811124035 22 125 3.2 6.4 0.00 0.00 0.00 73 1016.5
20220811123535 22 135 4.8 6.4 0.00 0.00 0.00 72 1016.6
20220811123035 22 136 6.4 8.0 0.00 0.00 0.00 71 1016.7
20220811122555 22 136 9.7 12.9 0.00 0.00 0.00 70 1016.7
20220811122055 22 138 9.7 14.5 0.00 0.00 0.00 70 1016.6
20220811121617 22 133 12.9 16.1 0.00 0.00 0.00 71 1016.6
20220811121035 22 138 11.3 16.1 0.00 0.00 0.00 70 1016.7
20220811120555 22 146 8.0 12.9 0.00 0.00 0.00 70 1016.7
20220811120117 22 148 8.0 11.3 0.00 0.00 0.00 69 1016.7
20220811115535 22 135 8.0 11.3 0.00 0.00 0.00 69 1016.7
20220811115117 22 138 8.0 12.9 0.00 0.00 0.00 70 1016.7
20220811114617 22 134 12.9 16.1 0.00 0.00 0.00 71 1016.6
20220811114035 22 114 12.9 16.1 0.00 0.00 0.00 73 1016.5
20220811113535 21 108 11.3 14.5 0.00 0.00 0.00 75 1016.4
20220811113055 21 89 11.3 14.5 0.00 0.00 0.00 75 1016.4
20220811112557 21 85 12.9 14.5 0.00 0.00 0.00 76 1016.4
20220811112057 21 95 14.5 14.5 0.00 0.00 0.00 76 1016.4
20220811111555 21 102 11.3 11.3 0.00 0.00 0.00 76 1016.4
20220811111035 21 105 9.7 12.9 0.00 0.00 0.00 76 1016.4
20220811110557 21 107 9.7 11.3 0.00 0.00 0.00 76 1016.4
20220811110117 21 110 9.7 14.5 0.00 0.00 0.00 77 1016.1
20220811105617 21 113 11.3 14.5 0.00 0.00 0.00 77 1016.4
20220811105057 22 109 9.7 12.9 0.00 0.00 0.00 76 1016.1
20220811104535 22 104 9.7 12.9 0.00 0.00 0.00 76 1016.2
20220811104035 22 120 11.3 12.9 0.00 0.00 0.00 75 1016.2
20220811103535 22 107 4.8 6.4 0.00 0.00 0.00 75 1016.3
20220811103055 22 107 6.4 9.7 0.00 0.00 0.00 74 1016.3
20220811102617 22 101 8.0 9.7 0.00 0.00 0.00 73 1016.4
20220811102055 22 109 6.4 9.7 0.00 0.00 0.00 71 1016.4
20220811101555 22 110 6.4 9.7 0.00 0.00 0.00 73 1016.4
20220811101055 22 131 8.0 8.0 0.00 0.00 0.00 71 1016.5
20220811100555 22 131 8.0 8.0 0.00 0.00 0.00 70 1016.5
20220811100057 23 131 4.8 8.0 0.00 0.00 0.00 70 1016.6
20220811095555 23 131 3.2 6.4 0.00 0.00 0.00 68 1016.5
20220811095055 23 131 6.4 8.0 0.00 0.00 0.00 70 1016.5
20220811094535 22 131 4.8 4.8 0.00 0.00 0.00 71 1016.5
20220811094055 23 131 0.0 4.8 0.00 0.00 0.00 71 1016.5
20220811093617 23 131 3.2 4.8 0.00 0.00 0.00 71 1016.5
20220811093035 23 131 3.2 4.8 0.00 0.00 0.00 71 1016.7
20220811092557 23 131 1.6 4.8 0.00 0.00 0.00 68 1016.6
20220811092057 23 131 3.2 4.8 0.00 0.00 0.00 67 1016.7
20220811091557 23 131 3.2 3.2 0.00 0.00 0.00 68 1016.7
20220811091055 23 131 3.2 4.8 0.00 0.00 0.00 67 1016.8
20220811090535 23 131 4.8 6.4 0.00 0.00 0.00 68 1016.8
20220811090055 23 131 4.8 6.4 0.00 0.00 0.00 68 1016.8
20220811085535 23 131 4.8 6.4 0.00 0.00 0.00 68 1016.8
20220811085035 23 131 4.8 6.4 0.00 0.00 0.00 70 1016.7
20220811084555 23 131 3.2 4.8 0.00 0.00 0.00 71 1016.6
20220811084059 23 131 0.0 1.6 0.00 0.00 0.00 72 1016.6
20220811083617 23 131 0.0 0.0 0.00 0.00 0.00 72 1016.7
20220811083058 23 131 0.0 3.2 0.00 0.00 0.00 72 1016.7
20220811082555 23 131 1.6 3.2 0.00 0.00 0.00 71 1016.8
20220811082057 23 131 3.2 4.8 0.00 0.00 0.00 70 1016.8
20220811081555 23 131 4.8 6.4 0.00 0.00 0.00 68 1016.9
20220811081117 24 144 4.8 6.4 0.00 0.00 0.00 68 1016.9
20220811080555 23 175 3.2 4.8 0.00 0.00 0.00 68 1016.9
20220811080117 23 175 1.6 4.8 0.00 0.00 0.00 68 1016.9
20220811075617 23 175 3.2 6.4 0.00 0.00 0.00 68 1017.1
20220811075117 23 175 3.2 6.4 0.00 0.00 0.00 70 1017.1
20220811074535 23 175 4.8 11.3 0.00 0.00 0.00 70 1017.1
20220811074117 23 133 6.4 12.9 0.00 0.00 0.00 70 1017.1
20220811073535 23 128 11.3 12.9 0.00 0.00 0.00 70 1017.1
20220811073035 23 124 12.9 14.5 0.00 0.00 0.00 70 1016.7
20220811072557 23 113 12.9 16.1 0.00 0.00 0.03 71 1017.0
20220811072055 23 93 14.5 17.7 0.00 0.00 0.03 71 1017.1
20220811071535 23 81 11.3 12.9 0.00 0.00 0.03 69 1017.1
20220811071035 23 101 9.7 11.3 0.00 0.00 0.03 69 1017.2
20220811070535 23 110 9.7 12.9 0.00 0.00 0.03 69 1017.2
20220811070035 24 112 12.9 16.1 0.00 0.00 0.03 67 1017.3
20220811065535 24 133 12.9 14.5 0.00 0.00 0.03 67 1017.3
20220811065055 23 139 11.3 14.5 0.00 0.00 0.03 68 1017.2
20220811064617 23 144 4.8 12.9 0.00 0.00 0.03 70 1017.2
20220811064117 23 144 9.7 12.9 0.00 0.00 0.03 70 1017.2
20220811063617 24 150 8.0 11.3 0.00 0.00 0.03 68 1017.3
20220811063117 24 159 8.0 11.3 0.00 0.00 0.03 66 1017.3
20220811062535 25 143 4.8 6.4 0.00 0.00 0.03 64 1017.4
20220811062035 25 142 4.8 8.0 0.00 0.00 0.03 63 1017.5
20220811061559 25 194 4.8 6.4 0.00 0.00 0.03 62 1017.5
20220811061055 25 200 3.2 4.8 0.00 0.00 0.03 62 1017.5
20220811060617 25 200 3.2 6.4 0.00 0.00 0.03 61 1017.6
20220811060117 25 200 6.4 9.7 0.00 0.00 0.03 61 1017.6
20220811055617 25 189 6.4 8.0 0.00 0.00 0.03 61 1017.7
20220811055035 25 182 4.8 6.4 0.00 0.00 0.03 60 1017.7
20220811054617 25 183 4.8 8.0 0.00 0.00 0.03 60 1017.7
20220811054055 25 182 6.4 8.0 0.00 0.00 0.03 60 1017.7
20220811053555 25 130 3.2 4.8 0.00 0.00 0.03 61 1017.7
20220811053035 25 49 0.0 0.0 0.00 0.00 0.03 61 1017.7
20220811052617 25 49 0.0 0.0 0.00 0.00 0.03 62 1017.8
20220811052035 26 49 0.0 3.2 0.00 0.00 0.03 61 1017.8
20220811051535 26 49 1.6 3.2 0.00 0.00 0.03 60 1017.8
20220811051037 26 49 0.0 1.6 0.00 0.00 0.03 59 1017.9
20220811050557 26 49 0.0 1.6 0.00 0.00 0.03 58 1018.2
20220811050055 26 49 1.6 4.8 0.00 0.00 0.03 58 1018.2
20220811045555 26 49 1.6 4.8 0.00 0.00 0.03 58 1018.2
20220811045055 26 49 3.2 4.8 0.00 0.00 0.03 59 1018.2
20220811044555 26 49 3.2 6.4 0.00 0.00 0.03 58 1018.2
20220811044117 26 49 4.8 8.0 0.00 0.00 0.03 58 1018.3
20220811043535 26 201 3.2 4.8 0.00 0.00 0.03 55 1018.4
20220811043035 26 202 1.6 4.8 0.00 0.00 0.03 55 1018.4
20220811042617 26 202 4.8 8.0 0.00 0.00 0.03 55 1018.4
20220811042035 26 190 4.8 9.7 0.00 0.00 0.03 55 1018.4
20220811041555 26 192 8.0 11.3 0.00 0.00 0.03 55 1018.4
20220811041035 26 202 8.0 12.9 0.00 0.00 0.03 54 1018.3
20220811040557 26 206 9.7 12.9 0.00 0.00 0.03 54 1018.0
20220811040117 26 193 9.7 12.9 0.00 0.00 0.03 53 1018.1
20220811035555 26 194 11.3 16.1 0.00 0.00 0.03 52 1018.1
20220811035117 26 183 12.9 16.1 0.00 0.00 0.03 52 1018.1
20220811034617 27 196 12.9 14.5 0.00 0.00 0.03 51 1018.1
20220811034057 27 196 14.5 17.7 0.00 0.00 0.03 51 1018.2
20220811033555 27 208 14.5 19.3 0.00 0.00 0.03 51 1018.3
20220811033035 27 206 12.9 14.5 0.00 0.00 0.03 52 1018.4
20220811032535 27 205 12.9 16.1 0.00 0.00 0.03 51 1018.4
20220811032117 27 194 9.7 19.3 0.00 0.00 0.03 50 1018.1
20220811031555 27 183 16.1 24.1 0.00 0.00 0.03 50 1018.1
20220811031117 27 178 16.1 24.1 0.00 0.00 0.03 50 1018.1
20220811030555 27 178 14.5 24.1 0.00 0.00 0.03 51 1018.1
20220811030035 27 187 17.7 20.9 0.00 0.00 0.03 51 1018.0
20220811025555 27 178 14.5 19.3 0.00 0.00 0.03 52 1018.0
20220811025035 27 183 14.5 22.5 0.00 0.00 0.03 54 1018.0
20220811024555 27 148 17.7 24.1 0.00 0.00 0.03 53 1018.0
20220811024055 27 144 17.7 22.5 0.00 0.00 0.03 53 1018.0
20220811023535 27 136 17.7 22.5 0.00 0.00 0.03 52 1018.0
20220811023117 27 139 19.3 24.1 0.00 0.00 0.03 52 1018.0
20220811022617 27 138 22.5 29.0 0.00 0.00 0.03 51 1018.0
20220811022055 27 133 24.1 29.0 0.00 0.00 0.03 51 1018.0
20220811021555 27 133 22.5 27.4 0.00 0.00 0.03 52 1018.0
20220811021055 27 130 22.5 29.0 0.00 0.00 0.03 54 1017.6
20220811020555 27 130 22.5 27.4 0.00 0.00 0.03 55 1018.0
20220811020057 27 132 20.9 25.7 0.00 0.00 0.03 55 1018.0
20220811015555 27 133 20.9 27.4 0.00 0.00 0.03 54 1018.0
20220811015117 27 134 22.5 27.4 0.00 0.00 0.03 53 1018.1
20220811014617 27 134 24.1 30.6 0.00 0.00 0.03 51 1018.2
20220811014117 28 132 25.7 29.0 0.00 0.00 0.03 50 1018.2
20220811013555 28 135 20.9 24.1 0.00 0.00 0.03 51 1018.3
20220811013035 28 138 19.3 25.7 0.00 0.00 0.03 51 1018.4
20220811012555 29 136 20.9 25.7 0.00 0.00 0.03 52 1018.3
20220811012117 29 136 11.3 12.9 0.00 0.00 0.03 54 1018.3
20220811011535 29 130 11.3 16.1 0.00 0.00 0.03 53 1018.4
20220811011036 29 130 12.9 16.1 0.00 0.00 0.03 51 1018.4
20220811010535 29 138 12.9 16.1 0.00 0.00 0.03 50 1018.4
20220811010035 29 134 11.3 16.1 0.00 0.00 0.03 50 1018.4
20220811005555 29 131 14.5 16.1 0.00 0.00 0.03 49 1018.1
20220811005055 29 131 14.5 16.1 0.00 0.00 0.03 49 1018.4
20220811004555 29 131 14.5 16.1 0.00 0.00 0.03 49 1018.1
20220811004035 30 134 14.5 16.1 0.00 0.00 0.03 49 1018.1
20220811003555 30 144 12.9 16.1 0.00 0.00 0.03 49 1018.1
20220811003117 30 147 12.9 14.5 0.00 0.00 0.03 49 1018.1
20220811002617 30 137 8.0 12.9 0.00 0.00 0.03 48 1018.1
20220811002055 30 121 8.0 12.9 0.00 0.00 0.03 48 1018.1
20220811001617 30 126 8.0 12.9 0.00 0.00 0.03 48 1018.1
20220811001035 30 115 8.0 11.3 0.00 0.00 0.03 48 1018.1
20220811000555 30 125 9.7 12.9 0.00 0.00 0.03 48 1017.8
20220811000055 30 98 8.0 11.3 0.00 0.00 0.03 48 1018.1
20220810235535 30 117 6.4 11.3 0.00 0.00 0.03 48 1018.1
20220810235035 30 128 8.0 11.3 0.00 0.00 0.03 48 1018.1
20220810234535 30 144 4.8 9.7 0.00 0.00 0.03 47 1018.1
20220810234035 30 86 0.0 3.2 0.00 0.00 0.03 47 1018.2
20220810233535 30 86 0.0 4.8 0.00 0.00 0.03 47 1018.2
20220810233055 30 86 3.2 6.4 0.00 0.00 0.03 47 1018.2
20220810232557 30 86 4.8 6.4 0.00 0.00 0.03 47 1018.2
20220810232059 30 207 1.6 4.8 0.00 0.00 0.03 47 1018.2
20220810231617 30 207 4.8 6.4 0.00 0.00 0.03 47 1017.9